Time;durP1;ratioP1;P1;durP2;ratioP2;P2;SDS_P1;SDS_P2;PMS_P1;PMS_P2;Temp;Humidity;BMP_temperature;BMP_pressure;BME280_temperature;BME280_humidity;BME280_pressure;Samples;Min_cycle;Max_cycle;Signal;HPM_P1;HPM_P2
2024/04/10 00:00:12;;;;;;;17.30;6.50;;;18.40;99.90;;;;;;5345659;26;20326;-68
2024/04/10 00:02:39;;;;;;;14.32;7.38;;;18.40;99.90;;;;;;5345403;26;20012;-69
2024/04/10 00:05:06;;;;;;;23.17;8.35;;;18.40;99.90;;;;;;5418478;26;19999;-69
2024/04/10 00:07:32;;;;;;;13.43;7.20;;;18.40;99.90;;;;;;5423707;26;19995;-70
2024/04/10 00:09:58;;;;;;;16.48;7.28;;;18.30;99.90;;;;;;5455015;26;20031;-69
2024/04/10 00:12:24;;;;;;;13.10;6.93;;;18.30;99.90;;;;;;5455034;26;20003;-69
2024/04/10 00:14:50;;;;;;;16.08;6.80;;;18.30;99.90;;;;;;5422962;26;20026;-70
2024/04/10 00:17:16;;;;;;;14.52;6.95;;;18.30;99.90;;;;;;5454605;26;19995;-69
2024/04/10 00:19:41;;;;;;;15.98;7.43;;;18.30;99.90;;;;;;5453544;26;20006;-69
2024/04/10 00:22:07;;;;;;;15.27;7.25;;;18.30;99.90;;;;;;5454359;26;20009;-70
2024/04/10 00:24:33;;;;;;;15.30;7.82;;;18.20;99.90;;;;;;5422396;26;19994;-69
2024/04/10 00:26:59;;;;;;;16.10;7.85;;;18.20;99.90;;;;;;5453714;26;20067;-69
2024/04/10 00:29:24;;;;;;;18.63;7.65;;;18.20;99.90;;;;;;5454475;26;19995;-72
2024/04/10 00:31:53;;;;;;;16.45;8.10;;;18.20;99.90;;;;;;5422576;26;19991;-69
2024/04/10 00:34:19;;;;;;;23.23;9.27;;;18.20;99.90;;;;;;5454439;26;20454;-70
2024/04/10 00:36:45;;;;;;;15.48;7.88;;;18.10;99.90;;;;;;5454159;26;20472;-70
2024/04/10 00:39:11;;;;;;;16.67;8.60;;;18.20;99.90;;;;;;5453939;26;20002;-69
2024/04/10 00:41:38;;;;;;;20.60;8.57;;;18.20;99.90;;;;;;5454044;26;20002;-70
2024/04/10 00:44:04;;;;;;;12.32;7.25;;;18.10;99.90;;;;;;5453483;26;20005;-69
2024/04/10 00:46:31;;;;;;;19.33;7.82;;;18.10;99.90;;;;;;5453516;26;20330;-68
2024/04/10 00:48:57;;;;;;;15.82;6.95;;;18.20;99.90;;;;;;5454064;26;20074;-74
2024/04/10 00:51:23;;;;;;;19.35;7.88;;;18.10;99.90;;;;;;5454099;26;20003;-69
2024/04/10 00:53:50;;;;;;;15.68;6.40;;;18.10;99.90;;;;;;5454223;26;20403;-68
2024/04/10 00:56:16;;;;;;;20.95;7.40;;;18.10;99.90;;;;;;5453875;26;19999;-69
2024/04/10 00:58:42;;;;;;;14.32;7.20;;;18.10;99.90;;;;;;5451671;26;20038;-68
2024/04/10 01:01:13;;;;;;;13.20;7.10;;;18.10;99.90;;;;;;5450578;26;20320;-70
2024/04/10 01:03:40;;;;;;;15.00;7.38;;;18.00;99.90;;;;;;5436448;26;19999;-69
2024/04/10 01:06:10;;;;;;;12.73;7.97;;;18.00;99.90;;;;;;5449281;26;20324;-69
2024/04/10 01:08:37;;;;;;;13.88;7.78;;;18.00;99.90;;;;;;5387210;26;20003;-69
2024/04/10 01:11:05;;;;;;;14.85;9.00;;;18.10;99.90;;;;;;5418539;26;20401;-69
2024/04/10 01:13:32;;;;;;;16.42;7.70;;;18.00;99.90;;;;;;5428119;26;20010;-69
2024/04/10 01:16:07;;;;;;;15.45;8.63;;;18.00;99.90;;;;;;5454306;26;20409;-69
2024/04/10 01:26:05;;;;;;;17.92;7.72;;;17.80;99.90;;;;;;5310294;26;20072;-69
2024/04/10 01:36:30;;;;;;;15.02;7.28;;;17.70;99.90;;;;;;5142555;27;20072;-69
2024/04/10 01:40:02;;;;;;;15.90;7.80;;;17.70;99.90;;;;;;5143157;27;20327;-69
2024/04/10 01:42:28;;;;;;;18.05;8.38;;;17.70;99.90;;;;;;5017659;28;20003;-69
2024/04/10 01:44:55;;;;;;;14.32;7.22;;;17.70;99.90;;;;;;5157927;27;20403;-68
2024/04/10 01:47:21;;;;;;;13.48;7.63;;;17.60;99.90;;;;;;5275516;27;20361;-70
2024/04/10 01:49:47;;;;;;;11.52;7.40;;;17.50;99.90;;;;;;5358970;26;20403;-69
2024/04/10 01:52:13;;;;;;;16.02;8.02;;;17.50;99.90;;;;;;5382280;26;20008;-69
2024/04/10 01:54:39;;;;;;;11.52;6.97;;;17.50;99.90;;;;;;5382138;26;20000;-68
2024/04/10 01:57:05;;;;;;;18.95;8.27;;;17.50;99.90;;;;;;5381596;26;20000;-68
2024/04/10 01:59:31;;;;;;;15.15;7.90;;;17.50;99.90;;;;;;5399280;26;19995;-69
2024/04/10 02:01:57;;;;;;;15.05;7.85;;;17.50;99.90;;;;;;5417318;26;19996;-69
2024/04/10 02:04:23;;;;;;;15.85;7.95;;;17.50;99.90;;;;;;5417266;26;20014;-69
2024/04/10 02:06:49;;;;;;;12.10;7.40;;;17.50;99.90;;;;;;5417087;26;20010;-69
2024/04/10 02:09:14;;;;;;;17.52;8.43;;;17.50;99.90;;;;;;5416477;26;20007;-68
2024/04/10 02:11:40;;;;;;;15.32;7.55;;;17.50;99.90;;;;;;5416728;26;20000;-72
2024/04/10 02:14:06;;;;;;;15.77;8.68;;;17.50;99.90;;;;;;5385762;26;19995;-70
2024/04/10 02:16:33;;;;;;;18.23;8.18;;;17.40;99.90;;;;;;5417297;26;20447;-69
2024/04/10 02:18:58;;;;;;;12.68;8.00;;;17.50;99.90;;;;;;5417161;26;20463;-70
2024/04/10 02:21:24;;;;;;;14.95;7.63;;;17.50;99.90;;;;;;5417081;26;20014;-69
2024/04/10 02:23:50;;;;;;;14.30;7.72;;;17.40;99.90;;;;;;5416574;26;20060;-91
2024/04/10 02:26:17;;;;;;;15.68;7.30;;;17.40;99.90;;;;;;5418447;26;20351;-92
2024/04/10 02:28:43;;;;;;;19.65;8.02;;;17.40;99.90;;;;;;5418920;26;19998;-91
2024/04/10 02:31:09;;;;;;;12.20;7.20;;;17.40;99.90;;;;;;5418641;26;19995;-91
2024/04/10 02:33:38;;;;;;;15.90;6.75;;;17.40;99.90;;;;;;5418136;26;19991;-92
2024/04/10 02:36:08;;;;;;;12.82;6.35;;;17.40;99.90;;;;;;5418132;26;19996;-92
2024/04/10 02:38:35;;;;;;;13.48;6.50;;;17.40;99.90;;;;;;5418327;26;20000;-92
2024/04/10 02:41:01;;;;;;;10.82;7.03;;;17.30;99.90;;;;;;5418117;26;20003;-91
2024/04/10 02:43:27;;;;;;;11.43;6.35;;;17.30;99.90;;;;;;5419143;26;20004;-91
2024/04/10 02:45:57;;;;;;;16.55;6.88;;;17.30;99.90;;;;;;5421255;26;20447;-70
2024/04/10 02:48:24;;;;;;;12.27;6.22;;;17.30;99.90;;;;;;5419978;26;20015;-68
2024/04/10 02:50:51;;;;;;;9.80;6.13;;;17.30;99.90;;;;;;5420737;26;20003;-70
2024/04/10 02:53:18;;;;;;;11.63;5.75;;;17.20;99.90;;;;;;5421081;26;20357;-69
2024/04/10 02:55:45;;;;;;;16.45;6.15;;;17.20;99.90;;;;;;5389278;26;20007;-69
2024/04/10 02:58:56;;;;;;;11.43;5.72;;;17.20;99.90;;;;;;5419921;26;20004;-68
2024/04/10 03:04:47;;;;;;;;;;;17.10;99.90;;;;;;5420915;26;20018;-69
2024/04/10 03:07:28;;;;;;;10.85;5.68;;;17.10;99.90;;;;;;5419900;26;20358;-69
2024/04/10 03:23:36;;;;;;;14.25;7.03;;;17.00;99.90;;;;;;5455473;26;20006;-69
2024/04/10 03:26:08;;;;;;;7.80;5.22;;;17.00;99.90;;;;;;5455701;26;20375;-69
2024/04/10 03:28:34;;;;;;;12.90;5.40;;;17.00;99.90;;;;;;5423930;26;20456;-69
2024/04/10 03:31:01;;;;;;;14.20;5.65;;;17.00;99.90;;;;;;5455619;26;20015;-69
2024/04/10 03:33:27;;;;;;;11.10;5.30;;;17.00;99.90;;;;;;5455525;26;20003;-69
2024/04/10 03:35:53;;;;;;;12.30;6.07;;;17.00;99.90;;;;;;5454781;26;20015;-90
2024/04/10 03:38:19;;;;;;;13.95;5.90;;;17.00;99.90;;;;;;5454709;26;20011;-69
2024/04/10 03:40:46;;;;;;;14.07;5.65;;;16.90;99.90;;;;;;5454547;26;19999;-70
2024/04/10 03:43:12;;;;;;;11.25;5.07;;;16.90;99.90;;;;;;5454704;26;20352;-69
2024/04/10 03:45:38;;;;;;;17.80;5.38;;;16.90;99.90;;;;;;5454810;26;19999;-69
2024/04/10 03:48:04;;;;;;;12.20;5.43;;;16.80;99.90;;;;;;5454277;26;20007;-69
2024/04/10 03:50:30;;;;;;;10.63;5.55;;;16.80;99.90;;;;;;5454552;26;19998;-69
2024/04/10 03:52:56;;;;;;;9.20;5.35;;;;;;;;;;5455046;26;20013;-69
2024/04/10 03:55:22;;;;;;;10.30;5.30;;;16.80;99.90;;;;;;5453665;26;20451;-70
2024/04/10 03:57:48;;;;;;;11.93;5.05;;;16.80;99.90;;;;;;5454864;26;20002;-68
2024/04/10 04:00:14;;;;;;;13.40;5.68;;;16.70;99.90;;;;;;5454271;26;20010;-70
2024/04/10 04:02:40;;;;;;;14.55;5.43;;;16.70;99.90;;;;;;5454797;26;20527;-70
2024/04/10 04:05:06;;;;;;;11.25;4.93;;;16.80;99.90;;;;;;5454348;26;20006;-70
2024/04/10 04:07:32;;;;;;;9.82;5.28;;;16.80;99.90;;;;;;5455036;26;19999;-70
2024/04/10 04:09:58;;;;;;;12.18;5.20;;;16.80;99.90;;;;;;5454694;26;20072;-69
2024/04/10 04:12:24;;;;;;;12.45;5.10;;;16.80;99.90;;;;;;5454538;26;19999;-69
2024/04/10 04:14:49;;;;;;;13.90;5.55;;;16.80;99.90;;;;;;5454402;26;20015;-69
2024/04/10 04:17:15;;;;;;;9.85;4.97;;;16.80;99.90;;;;;;5422912;26;20003;-69
2024/04/10 04:19:41;;;;;;;10.55;4.97;;;16.80;99.90;;;;;;5454910;26;20079;-69
2024/04/10 04:22:07;;;;;;;13.23;5.38;;;16.80;99.90;;;;;;5454288;26;19998;-69
2024/04/10 04:24:33;;;;;;;12.88;5.20;;;16.80;99.90;;;;;;5454536;26;20002;-68
2024/04/10 04:26:58;;;;;;;11.52;4.97;;;16.90;99.90;;;;;;5453908;26;20013;-70
2024/04/10 04:29:24;;;;;;;10.77;5.85;;;16.80;99.90;;;;;;5453713;26;19999;-69
2024/04/10 04:31:50;;;;;;;17.88;5.50;;;16.80;99.90;;;;;;5454970;26;19995;-69
2024/04/10 04:34:17;;;;;;;16.35;6.00;;;16.80;99.90;;;;;;5454937;26;20014;-69
2024/04/10 04:37:04;;;;;;;15.07;4.63;;;16.80;99.90;;;;;;5454745;26;20381;-69
2024/04/10 04:40:30;;;;;;;8.07;4.85;;;16.80;99.90;;;;;;5454492;26;20035;-69
2024/04/10 04:50:41;;;;;;;;;;;;;;;;;;;;;
2024/04/10 05:00:23;;;;;;;14.45;5.25;;;16.60;99.90;;;;;;5186591;27;20525;-69
2024/04/10 05:06:17;;;;;;;21.40;5.10;;;16.60;99.90;;;;;;5309986;26;20008;-72
2024/04/10 05:08:43;;;;;;;11.68;5.28;;;16.60;99.90;;;;;;5453837;26;20347;-69
2024/04/10 05:11:09;;;;;;;17.98;5.18;;;16.60;99.90;;;;;;5453225;26;20446;-69
2024/04/10 05:13:36;;;;;;;12.32;5.22;;;16.70;99.90;;;;;;5453670;26;20003;-69
2024/04/10 05:16:02;;;;;;;14.68;5.25;;;16.60;99.90;;;;;;5452728;26;20009;-69
2024/04/10 05:18:28;;;;;;;13.23;5.25;;;16.60;99.90;;;;;;5453486;26;20013;-70
2024/04/10 05:20:54;;;;;;;11.82;5.43;;;16.70;99.90;;;;;;5453393;26;19999;-70
2024/04/10 05:23:20;;;;;;;19.27;5.60;;;16.70;99.90;;;;;;5453109;26;19999;-69
2024/04/10 05:25:48;;;;;;;11.27;5.28;;;16.70;99.90;;;;;;5453240;26;20077;-69
2024/04/10 05:28:14;;;;;;;8.40;5.72;;;16.70;99.90;;;;;;5452934;26;20374;-70
2024/04/10 05:30:41;;;;;;;10.15;4.85;;;16.70;99.90;;;;;;5452979;26;19995;-69
2024/04/10 05:33:07;;;;;;;15.65;5.07;;;16.70;99.90;;;;;;5421466;26;20436;-69
2024/04/10 05:35:32;;;;;;;13.57;5.45;;;16.70;99.90;;;;;;5453322;26;20075;-68
2024/04/10 05:37:59;;;;;;;18.00;5.53;;;16.70;99.90;;;;;;5453490;26;19999;-69
2024/04/10 05:40:25;;;;;;;13.25;5.57;;;16.70;99.90;;;;;;5453299;26;20443;-69
2024/04/10 05:42:51;;;;;;;9.50;6.05;;;16.70;99.90;;;;;;5452952;26;20003;-69
2024/04/10 05:45:18;;;;;;;18.65;6.40;;;16.70;99.90;;;;;;5452653;26;20075;-69
2024/04/10 05:47:51;;;;;;;14.48;6.35;;;16.70;99.90;;;;;;5453669;26;20002;-89
2024/04/10 05:50:16;;;;;;;15.30;7.80;;;16.80;99.90;;;;;;5454817;26;20079;-89
2024/04/10 05:52:43;;;;;;;16.13;7.60;;;16.80;99.90;;;;;;5460863;26;20003;-93
2024/04/10 05:55:10;;;;;;;14.63;7.22;;;16.80;99.90;;;;;;5456199;26;19995;-91
2024/04/10 05:57:36;;;;;;;16.02;7.05;;;16.80;99.90;;;;;;5457924;26;19999;-91
2024/04/10 06:03:12;;;;;;;19.08;6.55;;;16.80;99.90;;;;;;5377306;26;20495;-69
2024/04/10 06:06:18;;;;;;;16.42;7.20;;;16.80;99.90;;;;;;5346308;26;20004;-69
2024/04/10 06:09:08;;;;;;;13.35;6.10;;;16.80;99.90;;;;;;5345428;26;20013;-69
2024/04/10 06:11:37;;;;;;;16.67;6.35;;;16.70;99.90;;;;;;5345979;26;20018;-69
2024/04/10 06:14:03;;;;;;;11.52;5.03;;;16.60;99.90;;;;;;5345539;26;20032;-71
2024/04/10 06:16:30;;;;;;;14.48;4.85;;;16.50;99.90;;;;;;5353816;26;20000;-67
2024/04/10 06:18:56;;;;;;;11.35;4.88;;;16.50;99.90;;;;;;5380178;26;20452;-67
2024/04/10 06:21:22;;;;;;;12.77;4.47;;;16.50;99.90;;;;;;5380722;26;20524;-71
2024/04/10 06:23:48;;;;;;;8.68;4.53;;;16.50;99.90;;;;;;5381249;26;20016;-84
2024/04/10 06:26:14;;;;;;;14.38;4.32;;;16.60;99.90;;;;;;5380803;26;20014;-71
2024/04/10 06:40:26;;;;;;;16.50;7.22;;;16.60;99.90;;;;;;5434518;26;20357;-77
2024/04/10 06:42:52;;;;;;;14.43;6.88;;;16.80;99.90;;;;;;5434296;26;20014;-67
2024/04/10 06:45:18;;;;;;;18.30;6.75;;;16.80;99.90;;;;;;5432982;26;19996;-69
2024/04/10 06:47:44;;;;;;;11.00;6.30;;;16.80;99.90;;;;;;5434764;26;20009;-73
2024/04/10 06:50:09;;;;;;;15.82;6.15;;;16.80;99.90;;;;;;5435221;26;20072;-75
2024/04/10 06:52:36;;;;;;;16.20;5.65;;;16.80;99.90;;;;;;5434784;26;20067;-66
2024/04/10 06:55:02;;;;;;;13.75;6.43;;;16.80;99.90;;;;;;5434833;26;19999;-66
2024/04/10 06:57:28;;;;;;;20.35;6.15;;;16.80;99.90;;;;;;5434540;26;20021;-68
2024/04/10 06:59:54;;;;;;;16.15;6.07;;;16.80;99.90;;;;;;5434590;26;19995;-66
2024/04/10 07:02:20;;;;;;;10.07;5.90;;;16.80;99.90;;;;;;5434862;26;20012;-66
2024/04/10 07:04:47;;;;;;;12.82;6.45;;;16.90;99.90;;;;;;5433967;26;20023;-66
2024/04/10 07:07:13;;;;;;;18.73;6.22;;;16.90;99.90;;;;;;5434550;26;20462;-66
2024/04/10 07:09:39;;;;;;;17.27;6.03;;;16.90;99.90;;;;;;5432761;26;20353;-65
2024/04/10 07:12:06;;;;;;;15.20;6.25;;;16.90;99.90;;;;;;5434665;26;19999;-65
2024/04/10 07:14:34;;;;;;;19.58;6.80;;;17.00;99.90;;;;;;5434886;26;19999;-67
2024/04/10 07:17:01;;;;;;;12.40;5.78;;;17.00;99.90;;;;;;5435231;26;20075;-65
2024/04/10 07:19:31;;;;;;;14.70;5.70;;;17.00;99.90;;;;;;5433029;26;20027;-68
2024/04/10 07:22:03;;;;;;;16.75;6.25;;;17.10;99.90;;;;;;5435109;26;20010;-69
2024/04/10 07:24:38;;;;;;;17.70;7.75;;;17.10;99.90;;;;;;5434511;26;20068;-68
2024/04/10 07:27:44;;;;;;;19.85;6.25;;;17.20;99.90;;;;;;5435070;26;20071;-68
2024/04/10 07:30:25;;;;;;;18.80;6.60;;;17.30;99.90;;;;;;5416724;26;20006;-68
2024/04/10 07:33:10;;;;;;;;;;;;;;;;;;;;;
2024/04/10 07:36:24;;;;;;;17.00;6.45;;;17.30;99.90;;;;;;5434133;26;19999;-67
2024/04/10 07:41:49;;;;;;;12.18;5.82;;;17.40;99.90;;;;;;5423787;26;20107;-68
2024/04/10 07:47:19;;;;;;;14.52;6.25;;;17.40;99.90;;;;;;5453461;26;20031;-68
2024/04/10 07:49:46;;;;;;;13.18;5.35;;;17.40;99.90;;;;;;5453182;26;20080;-68
2024/04/10 07:52:12;;;;;;;13.15;5.63;;;17.40;99.90;;;;;;5453225;26;20014;-69
2024/04/10 07:54:38;;;;;;;17.20;5.63;;;17.30;99.90;;;;;;5454472;26;20003;-67
2024/04/10 07:57:04;;;;;;;20.42;5.50;;;17.30;99.90;;;;;;5454699;26;20018;-68
2024/04/10 07:59:30;;;;;;;16.25;5.82;;;17.40;99.90;;;;;;5454300;26;20003;-74
2024/04/10 08:01:56;;;;;;;12.15;5.78;;;17.30;99.90;;;;;;5454669;26;20441;-68
2024/04/10 08:04:22;;;;;;;17.08;6.30;;;17.30;99.90;;;;;;5454816;26;19999;-68
2024/04/10 08:06:48;;;;;;;12.02;5.13;;;17.30;99.90;;;;;;5454801;26;19999;-68
2024/04/10 08:09:14;;;;;;;7.95;4.72;;;17.40;99.90;;;;;;5454265;26;20007;-71
2024/04/10 08:11:40;;;;;;;13.48;4.28;;;17.40;99.90;;;;;;5454500;26;20028;-69
2024/04/10 08:14:06;;;;;;;11.20;4.07;;;17.40;99.90;;;;;;5453864;26;20014;-68
2024/04/10 08:16:32;;;;;;;11.13;4.20;;;17.50;99.90;;;;;;5453765;26;20380;-69
2024/04/10 08:18:58;;;;;;;10.55;5.05;;;17.50;99.90;;;;;;5454690;26;20009;-69
2024/04/10 08:21:23;;;;;;;15.23;4.57;;;17.50;99.90;;;;;;5454379;26;20071;-69
2024/04/10 08:23:49;;;;;;;11.63;4.22;;;17.60;99.90;;;;;;5454778;26;20033;-70
2024/04/10 08:26:17;;;;;;;7.68;3.90;;;17.70;99.90;;;;;;5454626;26;20025;-70
2024/04/10 08:28:50;;;;;;;8.57;4.30;;;17.70;99.90;;;;;;5454328;26;20003;-76
2024/04/10 08:31:18;;;;;;;7.78;3.17;;;17.80;99.90;;;;;;5454245;26;20003;-76
2024/04/10 08:33:45;;;;;;;10.52;3.15;;;17.80;99.90;;;;;;5454580;26;20009;-76
2024/04/10 08:36:16;;;;;;;9.05;3.33;;;17.90;99.90;;;;;;5454606;26;20035;-76
2024/04/10 08:38:43;;;;;;;8.85;2.92;;;17.90;99.90;;;;;;5454145;26;20075;-75
2024/04/10 08:41:14;;;;;;;11.38;3.35;;;17.90;99.90;;;;;;5421821;26;20404;-76
2024/04/10 08:43:50;;;;;;;10.15;3.10;;;18.00;99.90;;;;;;5453886;26;20003;-75
2024/04/10 08:46:18;;;;;;;5.82;2.70;;;18.00;99.90;;;;;;5454133;26;20002;-75
2024/04/10 08:48:45;;;;;;;8.20;2.45;;;18.20;99.90;;;;;;5454428;26;19999;-69
2024/04/10 08:51:16;;;;;;;10.55;2.80;;;18.20;99.90;;;;;;5453716;26;20519;-69
2024/04/10 08:53:43;;;;;;;9.25;2.80;;;18.30;99.90;;;;;;5452741;26;20362;-69
2024/04/10 08:56:15;;;;;;;9.38;2.72;;;18.40;99.90;;;;;;5453895;26;20010;-68
2024/04/10 08:58:43;;;;;;;7.53;2.60;;;18.40;99.90;;;;;;5454477;26;20351;-68
2024/04/10 09:22:13;;;;;;;11.07;3.42;;;18.90;99.90;;;;;;5151388;27;20031;-69
2024/04/10 09:24:53;;;;;;;;;;;;;;;;;;;;;
2024/04/10 09:27:20;;;;;;;23.98;3.10;;;19.00;99.90;;;;;;5175628;27;20023;-69
2024/04/10 09:29:46;;;;;;;12.77;2.85;;;19.10;99.90;;;;;;5269556;27;20346;-70
2024/04/10 09:32:13;;;;;;;16.08;2.90;;;19.10;99.90;;;;;;5340509;26;19999;-70
2024/04/10 09:34:40;;;;;;;10.82;2.67;;;19.10;99.90;;;;;;5451542;26;19999;-69
2024/04/10 09:37:07;;;;;;;6.20;2.03;;;19.20;99.00;;;;;;5451280;26;20343;-70
2024/04/10 09:39:34;;;;;;;11.68;2.75;;;19.30;98.50;;;;;;5451765;26;19991;-69
2024/04/10 09:42:00;;;;;;;8.50;3.33;;;19.30;97.90;;;;;;5451731;26;20014;-74
2024/04/10 09:44:32;;;;;;;15.00;2.85;;;19.30;97.50;;;;;;5451377;26;19991;-71
2024/04/10 09:46:59;;;;;;;13.57;2.42;;;19.30;96.80;;;;;;5452505;26;20007;-74
2024/04/10 09:49:57;;;;;;;15.05;3.63;;;19.40;96.20;;;;;;5453011;26;20339;-74
2024/04/10 09:52:24;;;;;;;16.52;2.95;;;19.40;95.70;;;;;;5425362;26;20008;-75
2024/04/10 09:54:50;;;;;;;12.02;2.60;;;19.40;95.80;;;;;;5453259;26;20532;-75
2024/04/10 09:57:18;;;;;;;11.55;2.70;;;19.40;94.70;;;;;;5453346;26;19998;-70
2024/04/10 09:59:44;;;;;;;20.52;3.28;;;19.40;94.60;;;;;;5453368;26;20510;-76
2024/04/10 10:02:15;;;;;;;8.48;2.28;;;19.40;94.20;;;;;;5453206;26;20003;-75
2024/04/10 10:04:41;;;;;;;17.60;3.03;;;19.50;94.30;;;;;;5452730;26;20454;-75
2024/04/10 10:07:07;;;;;;;8.30;2.67;;;19.50;94.10;;;;;;5453232;26;20075;-75
2024/04/10 10:09:33;;;;;;;18.05;2.67;;;19.50;93.30;;;;;;5452381;26;20011;-74
2024/04/10 10:11:59;;;;;;;16.10;5.45;;;19.50;92.40;;;;;;5452997;26;20006;-71
2024/04/10 10:14:25;;;;;;;7.45;2.72;;;19.50;92.20;;;;;;5453079;26;20009;-73
2024/04/10 10:16:51;;;;;;;8.48;2.33;;;19.50;92.40;;;;;;5453265;26;19995;-74
2024/04/10 10:19:21;;;;;;;11.27;2.50;;;19.50;92.00;;;;;;5452843;26;19998;-76
2024/04/10 10:21:47;;;;;;;12.35;2.53;;;19.60;92.50;;;;;;5452756;26;20006;-74
2024/04/10 10:24:14;;;;;;;15.65;2.90;;;19.50;91.90;;;;;;5452971;26;19999;-74
2024/04/10 10:26:41;;;;;;;10.80;2.80;;;19.60;91.90;;;;;;5452029;26;20006;-73
2024/04/10 10:29:08;;;;;;;9.75;2.50;;;19.60;91.70;;;;;;5451958;26;20011;-76
2024/04/10 10:31:34;;;;;;;16.30;2.50;;;19.50;91.60;;;;;;5453598;26;20014;-77
2024/04/10 10:34:01;;;;;;;11.40;2.60;;;19.50;92.10;;;;;;5453089;26;19999;-76
2024/04/10 10:36:31;;;;;;;20.50;3.40;;;19.50;92.00;;;;;;5453317;26;19998;-76
2024/04/10 10:39:53;;;;;;;;;;;;;;;;;;;;;
2024/04/10 10:42:37;;;;;;;12.60;2.88;;;19.60;91.40;;;;;;5208096;27;20000;-69
2024/04/10 10:45:34;;;;;;;12.10;2.75;;;19.60;91.60;;;;;;5181284;27;20004;-76
2024/04/10 10:58:39;;;;;;;10.50;3.72;;;19.50;90.40;;;;;;4920383;29;20013;-77
2024/04/10 11:04:48;;;;;;;12.68;2.85;;;19.60;90.30;;;;;;4915433;28;20000;-77
2024/04/10 11:07:16;;;;;;;13.48;2.60;;;19.50;90.60;;;;;;5148126;27;20007;-71
2024/04/10 11:09:42;;;;;;;20.33;2.92;;;19.50;90.80;;;;;;5305647;26;19996;-70
2024/04/10 11:12:08;;;;;;;13.32;2.80;;;19.50;91.10;;;;;;5416070;26;20541;-69
2024/04/10 11:14:33;;;;;;;17.98;2.90;;;19.60;90.90;;;;;;5415672;26;19999;-70
2024/04/10 11:17:00;;;;;;;7.75;3.20;;;19.50;91.10;;;;;;5419538;26;19999;-70
2024/04/10 11:19:27;;;;;;;13.70;2.97;;;19.60;91.10;;;;;;5418793;26;20074;-69
2024/04/10 11:21:53;;;;;;;12.18;2.78;;;19.60;91.20;;;;;;5418488;26;20010;-73
2024/04/10 11:24:20;;;;;;;13.63;2.85;;;19.60;90.90;;;;;;5387493;26;19991;-71
2024/04/10 11:26:46;;;;;;;18.83;3.03;;;19.60;92.10;;;;;;5419278;26;19995;-71
2024/04/10 11:29:12;;;;;;;16.20;3.50;;;19.60;91.90;;;;;;5418235;26;20516;-70
2024/04/10 11:31:37;;;;;;;16.05;4.35;;;19.60;92.80;;;;;;5418675;26;19999;-70
2024/04/10 11:34:03;;;;;;;7.40;3.30;;;19.60;92.40;;;;;;5419189;26;20007;-70
2024/04/10 11:36:29;;;;;;;13.52;4.63;;;19.60;92.10;;;;;;5418951;26;19995;-70
2024/04/10 11:38:55;;;;;;;33.95;2.80;;;19.70;92.30;;;;;;5419049;26;20003;-71
2024/04/10 11:41:20;;;;;;;29.17;3.50;;;19.70;92.50;;;;;;5453679;26;20071;-70
2024/04/10 11:43:46;;;;;;;24.98;4.18;;;19.70;92.40;;;;;;5454983;26;20021;-71
2024/04/10 11:46:12;;;;;;;12.05;3.08;;;19.70;92.70;;;;;;5454213;26;20013;-77
2024/04/10 11:48:38;;;;;;;15.95;2.95;;;19.70;93.20;;;;;;5454893;26;20060;-76
2024/04/10 11:51:05;;;;;;;15.52;4.32;;;19.70;92.90;;;;;;5422589;26;20342;-77
2024/04/10 11:53:32;;;;;;;15.80;5.68;;;19.80;92.60;;;;;;5454550;26;20044;-77
2024/04/10 11:55:58;;;;;;;11.90;4.28;;;19.70;92.50;;;;;;5454280;26;19999;-77
2024/04/10 11:58:24;;;;;;;19.98;4.65;;;19.80;92.70;;;;;;5454400;26;20348;-76
2024/04/10 12:00:51;;;;;;;40.10;14.32;;;19.80;93.00;;;;;;5454806;26;20048;-77
2024/04/10 12:03:17;;;;;;;26.95;4.13;;;19.80;92.30;;;;;;5453832;26;20002;-78
2024/04/10 12:05:43;;;;;;;9.77;3.30;;;19.80;92.50;;;;;;5453671;26;20338;-76
2024/04/10 12:08:09;;;;;;;9.13;3.15;;;19.70;91.00;;;;;;5454325;26;20559;-75
2024/04/10 12:10:34;;;;;;;13.77;2.88;;;19.80;90.70;;;;;;5453211;26;20037;-76
2024/04/10 12:13:03;;;;;;;35.97;6.50;;;19.80;90.30;;;;;;5452288;26;20002;-76
2024/04/10 12:15:31;;;;;;;21.92;7.53;;;19.80;90.00;;;;;;5454367;26;20319;-74
2024/04/10 12:18:57;;;;;;;9.98;2.75;;;19.80;90.90;;;;;;5454586;26;20006;-76
2024/04/10 12:21:45;;;;;;;15.55;3.55;;;19.80;90.30;;;;;;5307165;26;20028;-70
2024/04/10 12:24:39;;;;;;;20.50;3.58;;;19.80;90.20;;;;;;5310449;26;20413;-69
2024/04/10 12:27:17;;;;;;;17.40;3.42;;;19.80;90.70;;;;;;5452019;26;20013;-74
2024/04/10 12:30:06;;;;;;;7.40;2.35;;;19.80;90.90;;;;;;5453214;26;20029;-70
2024/04/10 12:32:47;;;;;;;22.73;8.05;;;19.90;90.30;;;;;;5309562;26;19997;-70
2024/04/10 12:41:10;;;;;;;18.27;5.10;;;19.90;91.30;;;;;;5291539;26;20061;-71
2024/04/10 12:43:40;;;;;;;11.93;2.92;;;20.00;91.20;;;;;;5338428;26;19999;-71
2024/04/10 12:46:07;;;;;;;23.75;6.35;;;20.00;90.60;;;;;;5417592;26;19999;-70
2024/04/10 12:48:33;;;;;;;12.68;2.92;;;20.10;91.00;;;;;;5417851;26;19995;-70
2024/04/10 12:50:58;;;;;;;36.08;10.98;;;20.20;90.30;;;;;;5432159;26;20027;-70
2024/04/10 12:53:24;;;;;;;8.35;2.28;;;20.30;90.60;;;;;;5417766;26;20402;-74
2024/04/10 12:55:53;;;;;;;11.00;2.53;;;20.30;90.80;;;;;;5417119;26;19999;-71
2024/04/10 12:58:20;;;;;;;14.40;3.15;;;20.40;90.80;;;;;;5417798;26;20331;-77
2024/04/10 13:00:47;;;;;;;29.58;7.20;;;20.50;89.00;;;;;;5416199;26;20324;-76
2024/04/10 13:03:18;;;;;;;30.23;7.15;;;20.50;88.70;;;;;;5417683;26;20327;-76
2024/04/10 13:05:54;;;;;;;23.65;6.80;;;20.60;88.70;;;;;;5417729;26;20458;-76
2024/04/10 13:08:21;;;;;;;12.02;3.25;;;20.60;89.40;;;;;;5417536;26;20006;-75
2024/04/10 13:10:47;;;;;;;20.25;5.32;;;20.60;88.00;;;;;;5416419;26;20463;-77
2024/04/10 13:13:13;;;;;;;6.38;2.20;;;20.60;86.20;;;;;;5417508;26;20447;-76
2024/04/10 13:15:39;;;;;;;11.82;2.00;;;20.70;86.60;;;;;;5418241;26;20072;-76
2024/04/10 13:18:05;;;;;;;8.65;2.60;;;20.70;85.90;;;;;;5417751;26;20011;-75
2024/04/10 13:20:31;;;;;;;15.70;3.17;;;20.60;85.00;;;;;;5417662;26;20031;-75
2024/04/10 13:22:57;;;;;;;10.90;2.35;;;20.70;83.20;;;;;;5417430;26;20015;-77
2024/04/10 13:25:22;;;;;;;12.02;2.10;;;20.70;82.40;;;;;;5417810;26;20003;-75
2024/04/10 13:27:48;;;;;;;16.85;4.70;;;20.60;82.30;;;;;;5417288;26;20000;-76
2024/04/10 13:30:15;;;;;;;15.60;3.13;;;20.70;83.10;;;;;;5415592;26;20062;-77
2024/04/10 13:32:41;;;;;;;20.90;4.97;;;20.70;83.60;;;;;;5417697;26;20408;-75
2024/04/10 13:35:07;;;;;;;12.40;2.88;;;20.80;83.90;;;;;;5417513;26;20072;-76
2024/04/10 13:37:33;;;;;;;9.27;1.98;;;20.80;83.70;;;;;;5416848;26;19999;-76
2024/04/10 13:39:59;;;;;;;9.75;2.00;;;20.80;83.20;;;;;;5418290;26;20346;-70
2024/04/10 13:42:25;;;;;;;4.97;1.83;;;20.80;81.70;;;;;;5490000;26;20009;-74
2024/04/10 13:44:50;;;;;;;9.10;2.33;;;20.80;81.10;;;;;;5489570;26;20460;-76
2024/04/10 13:47:16;;;;;;;12.55;2.30;;;20.80;80.50;;;;;;5489576;26;20491;-73
2024/04/10 13:49:43;;;;;;;11.88;1.98;;;20.80;78.90;;;;;;5489573;26;20008;-73
2024/04/10 13:52:09;;;;;;;5.78;1.70;;;20.80;78.80;;;;;;5489364;26;20034;-75
2024/04/10 13:55:08;;;;;;;13.77;2.38;;;20.80;79.30;;;;;;5490319;26;20002;-75
2024/04/10 13:58:24;;;;;;;11.05;2.42;;;20.70;79.00;;;;;;5426117;26;19998;-76
2024/04/10 14:19:21;;;;;;;8.65;1.92;;;20.40;75.80;;;;;;5141671;27;20089;-70
2024/04/10 14:21:43;;;;;;;9.25;1.90;;;20.40;76.00;;;;;;5166490;27;20017;-69
2024/04/10 14:24:09;;;;;;;6.32;1.80;;;20.30;75.70;;;;;;5427696;26;20074;-69
2024/04/10 14:26:36;;;;;;;8.38;2.28;;;20.30;76.30;;;;;;5488227;26;19998;-70
2024/04/10 14:29:02;;;;;;;15.25;2.53;;;20.30;76.10;;;;;;5487960;26;19994;-69
2024/04/10 14:31:28;;;;;;;19.20;2.80;;;20.30;76.40;;;;;;5456336;26;20317;-70
2024/04/10 14:33:54;;;;;;;6.55;2.00;;;20.30;77.00;;;;;;5488537;26;19994;-71
2024/04/10 14:36:20;;;;;;;7.72;2.42;;;20.20;77.50;;;;;;5489034;26;19994;-69
2024/04/10 14:38:47;;;;;;;10.75;2.42;;;20.30;78.10;;;;;;5489147;26;19997;-69
2024/04/10 14:41:13;;;;;;;9.30;2.00;;;20.30;77.60;;;;;;5488415;26;20411;-69
2024/04/10 14:43:38;;;;;;;9.93;2.55;;;20.20;77.30;;;;;;5488809;26;19990;-70
2024/04/10 14:46:08;;;;;;;5.78;1.52;;;20.30;77.30;;;;;;5489072;26;20006;-70
2024/04/10 14:48:36;;;;;;;9.18;1.90;;;20.30;77.20;;;;;;5488943;26;19994;-70
2024/04/10 14:51:03;;;;;;;7.32;1.60;;;20.30;77.50;;;;;;5492625;26;20032;-69
2024/04/10 14:53:29;;;;;;;7.85;2.28;;;20.30;77.60;;;;;;5492688;26;20367;-69
2024/04/10 14:56:02;;;;;;;9.48;2.35;;;20.30;77.00;;;;;;5492042;26;20358;-69
2024/04/10 14:58:28;;;;;;;7.60;1.45;;;20.30;75.40;;;;;;5491958;26;20486;-69
2024/04/10 15:00:54;;;;;;;9.50;2.00;;;20.30;72.10;;;;;;5492593;26;19998;-76
2024/04/10 15:03:20;;;;;;;4.68;1.50;;;20.30;73.50;;;;;;5492471;26;20129;-76